Huvudsida
METAR-TAF:

METAR-TAF

Flygplatser :

Tiree Airport

Tiree, Skottland

latitud: 56-30N, longitud: 006-53W, höjd: 12 m

Aktuellt väderrapport

Denna rapport gjordes för 43 minuter sedan, klockan 18:20 UTC
Vind 16 kt från syd/sydost
Temperatur 15°C
Fuktighet 63%
Tryck 1022 hPa
Sikt 10 km eller mer

METAR: EGPU 291820Z AUTO 16016KT 9999 NCD 15/08 Q1022

Tid: 20:03 (19:03 UTC)

Väderprognos

Denna rapport gjordes för 5 timmar och 5 minuter sedan, klockan 13:58 UTC
Prognos gäller från 29 kl. 15 UTC till 29 kl. 24 UTC
Vind 15 kt från sydost
Sikt 10 km eller mer
Få moln på en höjd av 4000 ft
Sannolikhet 40% :
Temporärt
från 29 kl. 15 UTC till 29 kl. 24 UTC
Vind 18 kt från syd/sydost i byarna ända upp till 28 kt

TAF: EGPU 291358Z 2915/2924 14015KT 9999 FEW040 PROB40 TEMPO 2915/2924 15018G28KT

Aktuella väderrapporter och prognoser från 4000 flygplatser (METAR- och TAF-rapporter).

De tillgängliga stationerna syns som gula och röda prickar på kartan.

För musen över prickarna för att se namnen på stationerna.

Klicka sedan för att få väderrapporter och prognoser.

För att ändra kartan: Klicka på de gröna knapparna med ett svart kors på för att zooma in; den gröna knappen med ett streck på för att zooma ut; eller på de gröna pilarna för angränsande kartor.


METAR-TAF: